Time;durP1;ratioP1;P1;durP2;ratioP2;P2;SDS_P1;SDS_P2;PMS_P1;PMS_P2;Temp;Humidity;BMP_temperature;BMP_pressure;BME280_temperature;BME280_humidity;BME280_pressure;Samples;Min_cycle;Max_cycle;Signal;HPM_P1;HPM_P2
2024/02/17 00:01:36;;;;;;;14.38;3.40;;;12.60;99.90;;;;;;5094498;28;20494;-70
2024/02/17 00:04:01;;;;;;;13.75;5.00;;;12.60;99.90;;;;;;5100538;28;20030;-71
2024/02/17 00:06:27;;;;;;;14.63;4.97;;;12.60;99.90;;;;;;5092819;28;20032;-70
2024/02/17 00:08:55;;;;;;;11.75;5.35;;;12.60;99.90;;;;;;5101170;28;20106;-70
2024/02/17 00:11:21;;;;;;;19.75;4.28;;;12.70;99.90;;;;;;5098051;28;20366;-71
2024/02/17 00:13:46;;;;;;;18.75;4.65;;;12.70;99.90;;;;;;5103366;27;20019;-70
2024/02/17 00:16:12;;;;;;;17.67;4.75;;;12.70;99.90;;;;;;5105658;28;20130;-70
2024/02/17 00:18:41;;;;;;;9.45;3.92;;;12.70;99.90;;;;;;5093311;28;20032;-70
2024/02/17 00:21:06;;;;;;;12.15;4.03;;;12.70;99.90;;;;;;5101146;28;20036;-70
2024/02/17 00:23:32;;;;;;;18.75;5.25;;;12.70;99.90;;;;;;5099656;28;20024;-70
2024/02/17 00:25:57;;;;;;;2.67;1.27;;;12.70;99.90;;;;;;5095703;28;20067;-70
2024/02/17 00:28:26;;;;;;;11.90;3.80;;;12.70;99.90;;;;;;5100381;28;20028;-70
2024/02/17 00:30:53;;;;;;;21.30;4.45;;;12.60;99.90;;;;;;5092944;28;20035;-70
2024/02/17 00:33:19;;;;;;;18.05;4.75;;;12.70;99.90;;;;;;5097220;28;20038;-70
2024/02/17 00:35:45;;;;;;;13.63;4.47;;;12.70;99.90;;;;;;5117474;27;20044;-70
2024/02/17 00:38:11;;;;;;;11.60;3.08;;;12.70;99.90;;;;;;5097020;28;20043;-70
2024/02/17 00:40:44;;;;;;;14.50;3.72;;;12.70;99.90;;;;;;5092144;28;20096;-71
2024/02/17 00:43:10;;;;;;;23.08;5.57;;;12.70;99.90;;;;;;5103281;28;20030;-70
2024/02/17 00:45:36;;;;;;;14.27;3.75;;;12.70;99.90;;;;;;5094928;28;20415;-71
2024/02/17 00:48:01;;;;;;;4.97;2.22;;;12.70;99.90;;;;;;5102446;28;20035;-71
2024/02/17 00:50:27;;;;;;;8.45;3.85;;;12.70;99.90;;;;;;5093098;28;20036;-70
2024/02/17 00:52:53;;;;;;;16.40;4.90;;;12.70;99.90;;;;;;5102418;28;20667;-70
2024/02/17 00:55:19;;;;;;;10.40;3.55;;;12.70;99.90;;;;;;5092069;28;20036;-71
2024/02/17 00:57:44;;;;;;;12.25;3.25;;;12.60;99.90;;;;;;5089537;28;20048;-70
2024/02/17 01:00:11;;;;;;;5.93;2.22;;;12.60;99.90;;;;;;5093875;28;20058;-70
2024/02/17 01:02:36;;;;;;;7.95;2.10;;;12.60;99.90;;;;;;5099265;28;20028;-70
2024/02/17 01:05:02;;;;;;;9.70;4.07;;;12.60;99.90;;;;;;5100181;28;20101;-71
2024/02/17 01:07:29;;;;;;;17.00;3.13;;;12.60;99.90;;;;;;5099473;28;20100;-70
2024/02/17 01:09:55;;;;;;;7.72;2.80;;;12.50;99.90;;;;;;5104421;28;20051;-70
2024/02/17 01:12:23;;;;;;;16.02;3.08;;;12.40;99.90;;;;;;5096395;28;20062;-70
2024/02/17 01:14:49;;;;;;;12.52;3.60;;;12.50;99.90;;;;;;5114362;27;20073;-70
2024/02/17 01:17:15;;;;;;;1.70;1.42;;;12.50;99.90;;;;;;5100270;28;20039;-71
2024/02/17 01:19:47;;;;;;;10.95;3.42;;;12.50;99.90;;;;;;5100064;28;20044;-70
2024/02/17 01:22:12;;;;;;;20.08;5.38;;;12.50;99.90;;;;;;5096505;28;20035;-70
2024/02/17 01:24:38;;;;;;;11.23;3.05;;;12.50;99.90;;;;;;5102086;28;20101;-70
2024/02/17 01:27:07;;;;;;;11.43;4.50;;;12.60;99.90;;;;;;5093540;28;20028;-70
2024/02/17 01:29:33;;;;;;;17.63;4.22;;;12.60;99.90;;;;;;5099914;28;20035;-70
2024/02/17 01:31:58;;;;;;;8.48;3.75;;;12.60;99.90;;;;;;5092638;28;20028;-70
2024/02/17 01:34:24;;;;;;;5.88;2.85;;;12.60;99.90;;;;;;5095387;27;20032;-71
2024/02/17 01:36:50;;;;;;;14.10;4.63;;;12.70;99.80;;;;;;5114260;27;20084;-70
2024/02/17 01:39:16;;;;;;;9.68;3.42;;;12.70;99.80;;;;;;5104913;28;20027;-70
2024/02/17 01:41:41;;;;;;;20.80;4.60;;;12.60;99.70;;;;;;5100875;28;20043;-71
2024/02/17 01:44:07;;;;;;;17.38;4.32;;;12.60;99.70;;;;;;5093517;28;20028;-70
2024/02/17 01:46:39;;;;;;;13.27;3.70;;;12.60;99.70;;;;;;5099154;28;20039;-70
2024/02/17 01:49:05;;;;;;;12.02;4.03;;;12.60;99.70;;;;;;5094107;28;20063;-70
2024/02/17 01:51:31;;;;;;;13.93;4.47;;;12.60;99.70;;;;;;5101483;28;20090;-71
2024/02/17 01:54:03;;;;;;;15.52;4.22;;;12.60;99.70;;;;;;5099490;28;20020;-71
2024/02/17 01:56:31;;;;;;;15.95;5.05;;;12.60;99.70;;;;;;5100614;28;20044;-70
2024/02/17 01:58:58;;;;;;;9.55;3.42;;;12.50;99.60;;;;;;5073148;28;20616;-70
2024/02/17 02:01:24;;;;;;;10.95;3.05;;;12.50;99.70;;;;;;5100699;28;20092;-70
2024/02/17 02:03:52;;;;;;;13.00;4.40;;;12.50;99.70;;;;;;5100742;28;20081;-70
2024/02/17 02:06:22;;;;;;;14.43;4.25;;;12.50;99.70;;;;;;5105375;28;20043;-70
2024/02/17 02:08:49;;;;;;;17.27;3.97;;;12.50;99.70;;;;;;5116209;28;20050;-71
2024/02/17 02:11:15;;;;;;;9.10;3.47;;;12.50;99.70;;;;;;5121650;28;20020;-70
2024/02/17 02:13:40;;;;;;;11.32;3.30;;;12.40;99.70;;;;;;5106433;28;20039;-70
2024/02/17 02:16:06;;;;;;;15.02;4.40;;;12.40;99.80;;;;;;5100512;28;20031;-71
2024/02/17 02:18:33;;;;;;;13.45;4.25;;;12.40;99.80;;;;;;5088667;28;20152;-71
2024/02/17 02:20:59;;;;;;;10.50;3.58;;;12.40;99.70;;;;;;5098330;28;20032;-69
2024/02/17 02:23:25;;;;;;;18.25;5.50;;;12.40;99.70;;;;;;5093821;28;20035;-69
2024/02/17 02:25:54;;;;;;;10.98;4.15;;;12.50;99.70;;;;;;5096407;28;20028;-70
2024/02/17 02:28:21;;;;;;;11.80;3.85;;;12.50;99.60;;;;;;5089779;28;20032;-70
2024/02/17 02:30:47;;;;;;;11.82;3.92;;;12.50;99.50;;;;;;5104453;28;20091;-69
2024/02/17 02:33:13;;;;;;;10.60;4.07;;;12.60;99.40;;;;;;5096658;28;20027;-69
2024/02/17 02:35:38;;;;;;;12.07;4.82;;;12.60;99.30;;;;;;5104272;28;20046;-70
2024/02/17 02:38:04;;;;;;;16.08;4.20;;;12.60;99.20;;;;;;5090553;28;20028;-69
2024/02/17 02:40:30;;;;;;;11.45;3.15;;;12.60;99.20;;;;;;5102926;28;20035;-69
2024/02/17 02:42:57;;;;;;;14.10;3.55;;;12.60;99.20;;;;;;5090685;28;20058;-70
2024/02/17 02:45:23;;;;;;;8.75;3.97;;;12.60;99.20;;;;;;5101690;28;20879;-69
2024/02/17 02:47:49;;;;;;;18.92;4.32;;;12.60;99.20;;;;;;5104286;28;20127;-69
2024/02/17 02:50:14;;;;;;;9.75;4.00;;;12.60;99.50;;;;;;5101324;28;20063;-69
2024/02/17 02:52:40;;;;;;;17.52;3.53;;;12.60;99.30;;;;;;5094604;28;20067;-69
2024/02/17 02:55:06;;;;;;;13.98;4.50;;;12.60;99.30;;;;;;5112070;28;20179;-69
2024/02/17 02:57:33;;;;;;;13.98;4.15;;;12.60;99.30;;;;;;5104561;28;20520;-68
2024/02/17 02:59:58;;;;;;;11.75;4.70;;;12.60;99.30;;;;;;5104237;28;20123;-69
2024/02/17 03:02:24;;;;;;;11.30;3.83;;;12.60;99.20;;;;;;5110989;27;20111;-69
2024/02/17 03:04:52;;;;;;;14.18;4.20;;;12.60;99.20;;;;;;5102012;28;20051;-69
2024/02/17 03:07:18;;;;;;;8.48;3.30;;;12.60;99.10;;;;;;5095356;28;20463;-69
2024/02/17 03:09:44;;;;;;;8.68;3.80;;;12.60;99.10;;;;;;5098199;28;20074;-69
2024/02/17 03:12:10;;;;;;;14.90;3.72;;;12.60;99.10;;;;;;5099935;28;20043;-69
2024/02/17 03:14:37;;;;;;;10.75;3.25;;;12.60;99.10;;;;;;5104855;27;20024;-71
2024/02/17 03:17:06;;;;;;;11.77;3.42;;;12.60;99.20;;;;;;5102067;28;20051;-71
2024/02/17 03:19:32;;;;;;;12.10;3.08;;;12.60;99.20;;;;;;5094370;27;20027;-71
2024/02/17 03:21:57;;;;;;;14.25;3.40;;;12.60;99.20;;;;;;5102703;28;20402;-71
2024/02/17 03:24:23;;;;;;;16.38;3.63;;;12.60;99.20;;;;;;5104747;28;20153;-68
2024/02/17 03:26:49;;;;;;;13.15;3.38;;;12.60;99.50;;;;;;5102959;28;20035;-69
2024/02/17 03:29:16;;;;;;;8.55;3.13;;;12.60;99.20;;;;;;5102427;28;21275;-69
2024/02/17 03:31:44;;;;;;;9.88;3.08;;;12.60;99.50;;;;;;5100432;28;20032;-69
2024/02/17 03:34:09;;;;;;;10.77;2.30;;;12.50;99.10;;;;;;5105711;28;20030;-69
2024/02/17 03:36:35;;;;;;;11.23;2.33;;;12.50;99.10;;;;;;5098786;28;20032;-69
2024/02/17 03:39:08;;;;;;;4.00;2.28;;;12.40;99.20;;;;;;5104989;28;20031;-70
2024/02/17 03:41:37;;;;;;;5.03;1.80;;;12.40;99.30;;;;;;5098236;28;20232;-70
2024/02/17 03:44:04;;;;;;;8.10;1.67;;;12.40;99.30;;;;;;5093309;28;20498;-70
2024/02/17 03:46:30;;;;;;;8.52;2.00;;;12.40;99.30;;;;;;5095268;28;20066;-70
2024/02/17 03:48:55;;;;;;;10.85;1.80;;;12.40;99.10;;;;;;5096270;28;20027;-70
2024/02/17 03:51:21;;;;;;;6.10;1.48;;;12.40;99.00;;;;;;5089843;28;20083;-69
2024/02/17 03:53:47;;;;;;;6.53;1.63;;;12.40;98.70;;;;;;5114546;27;20032;-69
2024/02/17 03:56:16;;;;;;;4.40;1.35;;;12.40;98.70;;;;;;5099144;28;20391;-69
2024/02/17 03:58:42;;;;;;;5.07;1.30;;;12.40;98.70;;;;;;5092509;28;20078;-70
2024/02/17 04:01:08;;;;;;;10.07;1.80;;;12.50;98.70;;;;;;5100679;28;20124;-70
2024/02/17 04:03:33;;;;;;;4.60;1.25;;;12.40;98.70;;;;;;5093289;28;20098;-70
2024/02/17 04:05:59;;;;;;;5.07;1.30;;;12.40;98.80;;;;;;5100551;28;20032;-70
2024/02/17 04:08:25;;;;;;;8.35;1.20;;;12.40;98.90;;;;;;5093426;28;20488;-70
2024/02/17 04:10:50;;;;;;;3.28;0.90;;;12.40;98.90;;;;;;5105577;28;20035;-70
2024/02/17 04:13:17;;;;;;;4.70;1.25;;;12.40;98.90;;;;;;5093849;28;20345;-70
2024/02/17 04:15:42;;;;;;;3.97;1.05;;;12.40;98.80;;;;;;5092935;27;20047;-70
2024/02/17 04:18:09;;;;;;;5.88;0.93;;;12.40;98.80;;;;;;5089322;28;20028;-70
2024/02/17 04:20:39;;;;;;;2.83;0.90;;;12.40;98.80;;;;;;5088426;28;20107;-70
2024/02/17 04:23:06;;;;;;;4.32;1.23;;;12.40;98.90;;;;;;5105829;28;20059;-70
2024/02/17 04:25:32;;;;;;;7.00;2.03;;;12.40;98.80;;;;;;5099509;28;20054;-70
2024/02/17 04:28:00;;;;;;;3.08;0.90;;;12.40;98.80;;;;;;5107478;28;20106;-70
2024/02/17 04:30:25;;;;;;;2.25;1.13;;;12.30;98.80;;;;;;5089737;28;20028;-70
2024/02/17 04:32:51;;;;;;;1.48;0.70;;;12.30;98.90;;;;;;5100775;28;20043;-70
2024/02/17 04:35:17;;;;;;;6.72;0.85;;;12.20;98.80;;;;;;5095557;28;20027;-70
2024/02/17 04:37:44;;;;;;;4.97;1.17;;;12.20;98.70;;;;;;5111210;28;20099;-70
2024/02/17 04:40:10;;;;;;;2.17;0.82;;;12.10;98.80;;;;;;5103249;28;20059;-70
2024/02/17 04:42:36;;;;;;;0.63;0.63;;;12.10;98.90;;;;;;5101406;28;20039;-70
2024/02/17 04:45:01;;;;;;;2.47;0.60;;;12.10;98.80;;;;;;5108478;28;20034;-70
2024/02/17 04:47:27;;;;;;;2.90;0.68;;;12.10;98.80;;;;;;5098263;28;20030;-70
2024/02/17 04:49:53;;;;;;;2.88;0.90;;;12.10;98.80;;;;;;5107369;28;20051;-70
2024/02/17 04:52:18;;;;;;;4.05;0.80;;;12.00;98.70;;;;;;5097611;27;20036;-70
2024/02/17 04:54:44;;;;;;;1.27;0.80;;;12.00;98.80;;;;;;5091514;27;20047;-70
2024/02/17 04:57:09;;;;;;;2.67;0.80;;;12.00;98.70;;;;;;5089030;28;20052;-70
2024/02/17 04:59:35;;;;;;;4.38;0.63;;;12.00;98.80;;;;;;5108357;28;20023;-70
2024/02/17 05:02:01;;;;;;;6.65;0.80;;;12.00;98.70;;;;;;5094406;28;20052;-70
2024/02/17 05:04:26;;;;;;;2.92;1.00;;;12.00;98.50;;;;;;5102517;28;20410;-70
2024/02/17 05:06:54;;;;;;;2.00;0.90;;;12.00;98.70;;;;;;5088887;28;20048;-70
2024/02/17 05:09:19;;;;;;;4.25;1.23;;;12.00;98.70;;;;;;5096202;28;20467;-70
2024/02/17 05:11:45;;;;;;;2.35;1.17;;;12.00;98.80;;;;;;5107581;28;20070;-69
2024/02/17 05:14:15;;;;;;;4.72;1.35;;;12.00;99.00;;;;;;5103468;27;20028;-70
2024/02/17 05:16:43;;;;;;;2.85;0.82;;;12.00;99.10;;;;;;5112172;27;20454;-70
2024/02/17 05:19:14;;;;;;;1.95;0.90;;;11.90;99.10;;;;;;5109006;28;20027;-70
2024/02/17 05:21:42;;;;;;;7.57;1.42;;;12.00;99.10;;;;;;5105462;28;20036;-70
2024/02/17 05:24:11;;;;;;;3.38;1.55;;;11.90;99.00;;;;;;5088934;28;20065;-70
2024/02/17 05:26:38;;;;;;;6.78;1.88;;;11.80;99.00;;;;;;5094883;28;20031;-70
2024/02/17 05:29:07;;;;;;;3.30;1.30;;;11.90;99.00;;;;;;5088969;28;20023;-70
2024/02/17 05:31:34;;;;;;;3.47;1.25;;;11.80;98.90;;;;;;5090381;28;20055;-70
2024/02/17 05:34:00;;;;;;;4.00;1.40;;;11.90;98.70;;;;;;5089784;28;20103;-70
2024/02/17 05:36:26;;;;;;;10.13;1.73;;;11.90;98.60;;;;;;5089518;28;20447;-70
2024/02/17 05:38:52;;;;;;;15.60;1.33;;;11.90;98.40;;;;;;5096855;28;20031;-70
2024/02/17 05:41:18;;;;;;;5.55;1.20;;;11.90;98.30;;;;;;5094222;28;20180;-70
2024/02/17 05:43:44;;;;;;;9.07;1.20;;;11.90;98.10;;;;;;5091323;28;20082;-69
2024/02/17 05:46:11;;;;;;;2.40;1.08;;;11.90;97.90;;;;;;5091392;28;20441;-70
2024/02/17 05:48:37;;;;;;;4.63;1.40;;;11.90;98.00;;;;;;5088877;28;20024;-70
2024/02/17 05:51:03;;;;;;;3.80;0.90;;;11.90;97.90;;;;;;5099447;28;20047;-70
2024/02/17 05:53:28;;;;;;;4.85;1.08;;;11.90;97.90;;;;;;5102130;27;20110;-70
2024/02/17 05:55:54;;;;;;;5.43;1.00;;;11.90;97.80;;;;;;5090953;28;20043;-70
2024/02/17 05:58:20;;;;;;;6.70;1.33;;;11.90;97.80;;;;;;5088372;28;20475;-70
2024/02/17 06:00:45;;;;;;;5.20;1.58;;;11.90;97.90;;;;;;5100769;28;20076;-70
2024/02/17 06:03:11;;;;;;;2.38;0.90;;;11.90;97.90;;;;;;5088749;28;20032;-69
2024/02/17 06:05:36;;;;;;;4.50;1.05;;;12.00;97.90;;;;;;5101218;28;20031;-70
2024/02/17 06:08:03;;;;;;;6.07;1.10;;;11.90;97.80;;;;;;5088365;28;20059;-70
2024/02/17 06:10:28;;;;;;;2.03;0.75;;;11.90;97.80;;;;;;5099639;28;20035;-69
2024/02/17 06:12:54;;;;;;;2.92;0.98;;;12.00;97.90;;;;;;5087988;28;20549;-70
2024/02/17 06:15:20;;;;;;;4.30;0.82;;;12.00;98.00;;;;;;5091870;28;20145;-70
2024/02/17 06:17:49;;;;;;;3.65;1.00;;;11.90;98.10;;;;;;5088116;28;20040;-70
2024/02/17 06:22:59;;;;;;;2.80;1.52;;;11.90;97.70;;;;;;5097489;28;20498;-70
2024/02/17 06:25:24;;;;;;;6.47;1.02;;;12.00;97.60;;;;;;5102203;28;20036;-70
2024/02/17 06:27:50;;;;;;;2.40;0.80;;;11.90;97.50;;;;;;5100689;28;20028;-70
2024/02/17 06:30:18;;;;;;;6.50;0.95;;;11.90;97.70;;;;;;5103162;28;20274;-69
2024/02/17 06:32:46;;;;;;;2.72;1.10;;;11.90;98.00;;;;;;5107927;28;20031;-70
2024/02/17 06:35:13;;;;;;;2.28;1.30;;;11.80;97.90;;;;;;5104553;28;20403;-70
2024/02/17 06:37:40;;;;;;;7.57;1.38;;;11.80;97.60;;;;;;5105455;28;20039;-70
2024/02/17 06:40:06;;;;;;;7.68;1.10;;;11.80;97.60;;;;;;5103816;28;20032;-70
2024/02/17 06:42:32;;;;;;;5.72;1.35;;;11.80;97.50;;;;;;5104100;28;20055;-69
2024/02/17 06:44:57;;;;;;;6.70;1.50;;;11.80;97.40;;;;;;5092754;28;20108;-70
2024/02/17 06:47:23;;;;;;;1.80;0.88;;;11.80;97.30;;;;;;5105774;28;20028;-70
2024/02/17 06:49:51;;;;;;;6.57;1.50;;;11.70;97.00;;;;;;5093164;28;20056;-70
2024/02/17 06:52:17;;;;;;;3.95;1.20;;;11.70;97.10;;;;;;5092346;27;20588;-70
2024/02/17 06:54:43;;;;;;;7.18;1.25;;;11.70;97.00;;;;;;5099675;27;20035;-70
2024/02/17 06:57:08;;;;;;;4.70;1.25;;;11.70;97.10;;;;;;5100483;28;20043;-70
2024/02/17 06:59:34;;;;;;;5.60;1.40;;;11.70;97.20;;;;;;5091671;28;20020;-70
2024/02/17 07:02:00;;;;;;;3.92;1.08;;;11.70;97.40;;;;;;5092471;28;20036;-69
2024/02/17 07:04:25;;;;;;;4.00;1.08;;;11.70;97.30;;;;;;5102414;28;20047;-69
2024/02/17 07:06:51;;;;;;;2.72;1.15;;;11.70;97.20;;;;;;5092548;28;20063;-69
2024/02/17 07:09:20;;;;;;;3.28;1.10;;;11.70;97.10;;;;;;5103906;28;20020;-69
2024/02/17 07:11:46;;;;;;;9.60;2.55;;;11.70;97.00;;;;;;5104922;28;20040;-70
2024/02/17 07:14:12;;;;;;;4.50;0.90;;;11.70;97.10;;;;;;5095295;27;20158;-69
2024/02/17 07:16:38;;;;;;;7.38;0.98;;;11.70;97.00;;;;;;5103896;28;20126;-70
2024/02/17 07:19:04;;;;;;;5.95;1.15;;;11.60;97.20;;;;;;5091719;28;20117;-69
2024/02/17 07:21:30;;;;;;;4.82;1.05;;;11.50;97.00;;;;;;5105357;28;20040;-70
2024/02/17 07:23:56;;;;;;;4.28;0.77;;;11.60;97.00;;;;;;5104311;28;20032;-70
2024/02/17 07:26:22;;;;;;;1.90;0.55;;;11.60;96.90;;;;;;5094327;28;20399;-70
2024/02/17 07:28:48;;;;;;;3.50;0.93;;;11.50;96.90;;;;;;5095525;28;20036;-69
2024/02/17 07:31:16;;;;;;;2.63;1.58;;;11.60;97.20;;;;;;5097381;28;20039;-70
2024/02/17 07:33:46;;;;;;;1.67;0.70;;;11.50;97.30;;;;;;5097346;28;20475;-69
2024/02/17 07:36:13;;;;;;;2.65;0.93;;;11.50;97.30;;;;;;5095925;28;20043;-69
2024/02/17 07:38:39;;;;;;;4.25;0.88;;;11.60;97.40;;;;;;5112003;28;20027;-70
2024/02/17 07:41:05;;;;;;;5.68;0.90;;;11.60;97.30;;;;;;5108196;28;20027;-70
2024/02/17 07:43:30;;;;;;;2.30;0.85;;;11.60;97.30;;;;;;5093184;28;20490;-70
2024/02/17 07:45:56;;;;;;;3.65;1.05;;;11.60;97.40;;;;;;5096943;28;20139;-70
2024/02/17 07:48:22;;;;;;;1.42;0.70;;;11.60;97.40;;;;;;5097850;28;20455;-69
2024/02/17 07:50:54;;;;;;;3.13;1.20;;;11.60;97.40;;;;;;5091566;28;20127;-70
2024/02/17 07:53:19;;;;;;;3.72;0.90;;;11.60;97.50;;;;;;5108794;27;20115;-70
2024/02/17 07:55:45;;;;;;;2.90;1.10;;;11.60;97.70;;;;;;5099639;28;20134;-70
2024/02/17 07:58:10;;;;;;;2.70;0.98;;;11.60;97.70;;;;;;5091963;28;20788;-69
2024/02/17 08:00:38;;;;;;;1.38;0.95;;;11.60;97.70;;;;;;5093046;28;20043;-70
2024/02/17 08:03:04;;;;;;;1.55;0.95;;;11.60;97.70;;;;;;5096093;28;20023;-70
2024/02/17 08:05:30;;;;;;;6.85;1.15;;;11.50;97.80;;;;;;5104336;28;20054;-70
2024/02/17 08:07:55;;;;;;;4.68;1.02;;;11.50;97.90;;;;;;5094693;28;20531;-70
2024/02/17 08:10:21;;;;;;;4.70;0.95;;;11.50;97.70;;;;;;5094549;28;20391;-71
2024/02/17 08:12:47;;;;;;;2.13;0.80;;;11.50;97.70;;;;;;5090797;28;20055;-69
2024/02/17 08:15:12;;;;;;;0.65;0.60;;;11.60;97.60;;;;;;5116043;27;20494;-69
2024/02/17 08:17:39;;;;;;;6.00;1.20;;;11.60;97.70;;;;;;5096152;28;20040;-70
2024/02/17 08:20:08;;;;;;;7.40;1.15;;;11.50;97.70;;;;;;5095316;28;20086;-69
2024/02/17 08:22:34;;;;;;;1.38;0.70;;;11.50;97.90;;;;;;5099853;28;20035;-71
2024/02/17 08:25:00;;;;;;;3.55;0.90;;;11.50;97.90;;;;;;5100803;28;20034;-69
2024/02/17 08:27:26;;;;;;;0.80;0.57;;;11.50;98.00;;;;;;5107008;28;20028;-69
2024/02/17 08:29:51;;;;;;;0.47;0.47;;;11.50;98.00;;;;;;5097625;28;20070;-69
2024/02/17 08:32:17;;;;;;;3.20;0.82;;;11.40;98.00;;;;;;5094310;28;20080;-69
2024/02/17 08:34:43;;;;;;;3.65;0.88;;;11.40;98.10;;;;;;5104293;28;20039;-69
2024/02/17 08:37:09;;;;;;;5.38;0.82;;;11.30;98.20;;;;;;5100133;28;20104;-69
2024/02/17 08:39:35;;;;;;;1.65;0.93;;;11.40;98.20;;;;;;5092888;28;20114;-69
2024/02/17 08:42:00;;;;;;;6.13;0.98;;;11.40;98.10;;;;;;5098063;28;20122;-69
2024/02/17 08:44:26;;;;;;;5.53;0.80;;;11.40;98.00;;;;;;5095958;28;20020;-69
2024/02/17 08:46:52;;;;;;;0.85;0.57;;;11.50;98.00;;;;;;5100678;28;20082;-69
2024/02/17 08:49:17;;;;;;;1.90;0.80;;;11.50;98.00;;;;;;5101365;28;20054;-69
2024/02/17 08:51:43;;;;;;;2.55;0.90;;;11.50;97.90;;;;;;5100434;28;20036;-69
2024/02/17 08:54:09;;;;;;;4.82;1.23;;;11.50;97.90;;;;;;5114059;27;20546;-69
2024/02/17 08:56:35;;;;;;;3.28;1.08;;;11.50;97.90;;;;;;5103248;28;20040;-70
2024/02/17 08:59:01;;;;;;;3.45;0.98;;;11.50;97.90;;;;;;5090937;28;20043;-69
2024/02/17 09:01:36;;;;;;;0.77;0.77;;;11.50;97.90;;;;;;5098444;28;20115;-69
2024/02/17 09:04:01;;;;;;;6.50;1.60;;;11.50;97.90;;;;;;5096447;28;20038;-69
2024/02/17 09:06:27;;;;;;;7.95;1.38;;;11.50;97.90;;;;;;5108678;28;20035;-69
2024/02/17 09:08:53;;;;;;;2.08;0.85;;;11.50;97.90;;;;;;5093561;28;20028;-69
2024/02/17 09:11:18;;;;;;;5.10;0.90;;;11.50;97.90;;;;;;5102507;28;20078;-69
2024/02/17 09:13:48;;;;;;;7.32;1.00;;;11.50;97.80;;;;;;5098399;27;20176;-69
2024/02/17 09:16:14;;;;;;;1.77;0.80;;;11.50;97.80;;;;;;5091630;28;20123;-70
2024/02/17 09:18:40;;;;;;;3.08;1.10;;;11.50;97.80;;;;;;5103786;28;20525;-70
2024/02/17 09:21:05;;;;;;;4.55;1.27;;;11.50;97.90;;;;;;5091516;28;20032;-71
2024/02/17 09:23:31;;;;;;;3.70;0.98;;;11.50;97.80;;;;;;5094933;28;20035;-70
2024/02/17 09:25:56;;;;;;;5.07;1.70;;;11.50;97.90;;;;;;5096358;28;20023;-72
2024/02/17 09:28:22;;;;;;;2.53;0.80;;;11.50;97.90;;;;;;5089464;28;20016;-73
2024/02/17 09:30:49;;;;;;;4.47;0.90;;;11.50;97.90;;;;;;5097224;28;20032;-70
2024/02/17 09:33:19;;;;;;;4.07;1.00;;;11.50;97.90;;;;;;5097571;28;20517;-74
2024/02/17 09:35:45;;;;;;;4.43;1.30;;;11.60;97.90;;;;;;5106822;28;20539;-70
2024/02/17 09:38:11;;;;;;;10.60;1.70;;;11.60;97.80;;;;;;5101939;28;20047;-69
2024/02/17 09:40:39;;;;;;;8.48;1.83;;;11.60;97.70;;;;;;5096289;28;20028;-72
2024/02/17 09:43:05;;;;;;;12.27;1.65;;;11.70;97.70;;;;;;5090761;28;20038;-71
2024/02/17 09:45:30;;;;;;;4.38;0.93;;;11.70;97.60;;;;;;5099437;28;20031;-72
2024/02/17 09:47:58;;;;;;;6.07;1.52;;;11.70;97.60;;;;;;5097723;28;20551;-71
2024/02/17 09:50:24;;;;;;;4.75;1.20;;;11.70;97.60;;;;;;5092558;28;20058;-73
2024/02/17 09:52:50;;;;;;;9.90;2.25;;;11.70;97.70;;;;;;5093450;27;20024;-74
2024/02/17 09:55:16;;;;;;;3.80;0.80;;;11.70;97.70;;;;;;5094662;28;20032;-71
2024/02/17 09:57:43;;;;;;;6.07;1.15;;;11.80;97.50;;;;;;5100938;28;20044;-70
2024/02/17 10:00:10;;;;;;;10.48;2.22;;;11.70;97.60;;;;;;5091611;28;20040;-75
2024/02/17 10:02:39;;;;;;;7.50;0.80;;;11.80;97.70;;;;;;5094219;28;20052;-71
2024/02/17 10:05:06;;;;;;;16.30;1.55;;;11.80;97.90;;;;;;5092502;28;20032;-72
2024/02/17 10:07:45;;;;;;;3.33;0.90;;;11.70;97.90;;;;;;5091568;28;20067;-72
2024/02/17 10:10:10;;;;;;;10.02;1.40;;;11.70;98.00;;;;;;5095156;28;20039;-71
2024/02/17 10:12:54;;;;;;;15.07;1.85;;;11.80;98.10;;;;;;5092036;28;20028;-71
2024/02/17 10:15:21;;;;;;;13.00;1.60;;;11.80;98.00;;;;;;5107146;28;20119;-71
2024/02/17 10:17:48;;;;;;;5.93;1.48;;;11.90;97.80;;;;;;5091387;28;20663;-71
2024/02/17 10:20:14;;;;;;;7.38;1.17;;;11.90;97.70;;;;;;5088594;28;20583;-71
2024/02/17 10:22:43;;;;;;;9.20;1.52;;;12.00;97.70;;;;;;5099650;28;20131;-72
2024/02/17 10:25:13;;;;;;;9.60;1.77;;;12.00;97.70;;;;;;5096096;28;20077;-72
2024/02/17 10:27:39;;;;;;;11.30;2.20;;;12.10;97.70;;;;;;5087140;28;20043;-71
2024/02/17 10:30:09;;;;;;;18.70;2.53;;;12.10;97.70;;;;;;5092616;28;20529;-71
2024/02/17 10:32:35;;;;;;;5.82;1.40;;;12.10;97.30;;;;;;5088024;28;20111;-71
2024/02/17 10:35:06;;;;;;;6.38;1.83;;;12.10;96.90;;;;;;5086397;28;20444;-71
2024/02/17 10:37:33;;;;;;;19.50;1.75;;;12.10;97.00;;;;;;5086931;28;20122;-71
2024/02/17 10:40:00;;;;;;;8.52;2.20;;;12.20;96.90;;;;;;5093647;28;20024;-72
2024/02/17 10:42:27;;;;;;;9.27;2.08;;;12.20;96.80;;;;;;5093322;28;20084;-71
2024/02/17 10:44:55;;;;;;;8.50;1.60;;;12.30;96.80;;;;;;5090301;28;20024;-71
2024/02/17 10:47:26;;;;;;;9.77;1.60;;;12.30;96.70;;;;;;5087192;28;20119;-71
2024/02/17 10:50:00;;;;;;;16.15;1.85;;;12.40;96.90;;;;;;5088987;28;20056;-71
2024/02/17 10:52:29;;;;;;;16.85;2.30;;;12.30;96.90;;;;;;5090134;28;20035;-71
2024/02/17 10:55:04;;;;;;;8.57;1.63;;;12.40;96.80;;;;;;5093504;28;20036;-71
2024/02/17 10:57:39;;;;;;;10.30;1.70;;;12.40;96.70;;;;;;5093565;28;20488;-71
2024/02/17 11:00:08;;;;;;;14.07;1.70;;;12.40;96.70;;;;;;5091565;28;20108;-71
2024/02/17 11:02:34;;;;;;;9.40;1.70;;;12.50;96.60;;;;;;5104915;28;20023;-71
2024/02/17 11:05:00;;;;;;;10.75;1.83;;;12.50;96.30;;;;;;5097155;28;20040;-72
2024/02/17 11:07:26;;;;;;;13.43;2.05;;;12.60;96.30;;;;;;5088609;28;20096;-72
2024/02/17 11:10:03;;;;;;;4.65;1.38;;;12.60;96.20;;;;;;5097845;28;20032;-72
2024/02/17 11:12:29;;;;;;;4.03;1.23;;;12.60;96.10;;;;;;5096265;28;20032;-72
2024/02/17 11:15:11;;;;;;;11.57;1.67;;;12.70;96.20;;;;;;5104989;28;20035;-72
2024/02/17 11:17:40;;;;;;;9.40;1.90;;;12.70;96.30;;;;;;5099891;28;20522;-72
2024/02/17 11:20:25;;;;;;;9.20;1.48;;;12.80;96.40;;;;;;5094286;28;20028;-71
2024/02/17 11:22:52;;;;;;;5.65;1.40;;;12.80;96.40;;;;;;5096174;28;20036;-72
2024/02/17 11:25:39;;;;;;;7.30;1.52;;;12.90;96.80;;;;;;5099590;28;20038;-72
2024/02/17 11:28:22;;;;;;;10.80;2.50;;;12.90;96.60;;;;;;5094055;28;20039;-72
2024/02/17 11:30:52;;;;;;;6.03;1.20;;;13.00;95.70;;;;;;5099555;28;20028;-72
2024/02/17 11:33:31;;;;;;;8.13;1.30;;;13.00;95.50;;;;;;5102969;28;20052;-72
2024/02/17 11:35:58;;;;;;;10.07;2.55;;;13.00;95.50;;;;;;5103411;28;20028;-72
2024/02/17 11:38:25;;;;;;;11.75;2.08;;;13.00;95.30;;;;;;5101921;28;20027;-72
2024/02/17 11:41:01;;;;;;;5.57;1.10;;;13.00;95.10;;;;;;5092357;28;20048;-72
2024/02/17 11:43:34;;;;;;;7.93;1.70;;;13.00;96.10;;;;;;5099649;28;20750;-72
2024/02/17 11:46:03;;;;;;;7.32;1.83;;;13.00;95.90;;;;;;5092926;28;20479;-72
2024/02/17 11:48:30;;;;;;;12.82;2.20;;;13.10;96.30;;;;;;5097409;28;20032;-72
2024/02/17 11:51:26;;;;;;;8.65;1.70;;;13.10;96.10;;;;;;5106999;28;20044;-71
2024/02/17 11:53:52;;;;;;;12.40;1.55;;;13.10;96.00;;;;;;5097651;28;20074;-71
2024/02/17 11:56:19;;;;;;;13.93;1.35;;;13.10;96.00;;;;;;5096298;28;20036;-72
2024/02/17 11:58:45;;;;;;;13.27;1.90;;;13.20;96.00;;;;;;5109489;28;20039;-71
2024/02/17 12:01:13;;;;;;;9.25;1.60;;;13.20;96.10;;;;;;5099853;28;20020;-72
2024/02/17 12:03:39;;;;;;;8.80;1.70;;;13.40;95.80;;;;;;5095422;28;20036;-72
2024/02/17 12:06:06;;;;;;;7.35;1.85;;;13.30;95.90;;;;;;5095504;28;20512;-71
2024/02/17 12:08:32;;;;;;;11.05;1.83;;;13.40;96.00;;;;;;5103265;28;20026;-71
2024/02/17 12:10:58;;;;;;;7.55;1.95;;;13.40;95.70;;;;;;5098111;28;20035;-72
2024/02/17 12:13:25;;;;;;;8.48;1.33;;;13.40;95.50;;;;;;5096580;27;20036;-72
2024/02/17 12:15:54;;;;;;;9.93;2.15;;;13.50;96.10;;;;;;5101048;27;20119;-71
2024/02/17 12:18:21;;;;;;;13.48;1.90;;;13.40;96.60;;;;;;5098343;28;20089;-72
2024/02/17 12:20:47;;;;;;;2.95;1.00;;;13.50;96.90;;;;;;5099395;28;20035;-72
2024/02/17 12:23:13;;;;;;;11.05;1.40;;;13.50;97.20;;;;;;5090494;28;20513;-77
2024/02/17 12:25:40;;;;;;;12.18;1.70;;;13.50;97.00;;;;;;5102020;28;20071;-73
2024/02/17 12:28:09;;;;;;;8.93;1.42;;;13.50;96.80;;;;;;5098196;28;20031;-72
2024/02/17 12:30:49;;;;;;;10.13;1.52;;;13.50;97.00;;;;;;5091712;28;20439;-77
2024/02/17 12:33:19;;;;;;;11.13;1.83;;;13.50;96.90;;;;;;5091058;28;20028;-72
2024/02/17 12:35:46;;;;;;;14.18;1.92;;;13.60;96.80;;;;;;5092112;28;20115;-72
2024/02/17 12:38:17;;;;;;;10.63;1.80;;;13.60;96.30;;;;;;5098041;28;20044;-72
2024/02/17 12:40:44;;;;;;;16.52;1.70;;;13.60;96.50;;;;;;5102496;28;20563;-72
2024/02/17 12:43:24;;;;;;;6.50;1.65;;;13.70;96.90;;;;;;5097047;28;20471;-72
2024/02/17 12:45:50;;;;;;;11.68;1.42;;;13.60;96.10;;;;;;5100780;28;20125;-72